Flight Track Log - Related Links

Times and Time Zones

All times are in EDT time to prevent confusion due to time zone crossing. See the KAP2826 flight status page for this flight to view local times or setup timezone preferences in your user account.

Time Position Orientation Groundspeed Altitude Reporting Facility
EDT Latitude Longitude Course Direction KTS MPH feet Rate Location/Type
Tue 07:03:00 AM 41.3677 -70.1464 331° Northwest  Level FlightAware Approximate
Tue 07:04:00 AM 41.3868 -70.1608 331° Northwest  Level FlightAware Approximate
Tue 07:05:00 AM 41.4059 -70.1752 331° Northwest  Level FlightAware Approximate
Tue 07:06:00 AM 41.4190 -70.1857 323° Northwest  Level FlightAware Approximate
Tue 07:07:00 AM 41.4366 -70.2032 323° Northwest  Level FlightAware Approximate
Tue 07:08:00 AM 41.4544 -70.2201 330° Northwest  Level FlightAware Approximate
Tue 07:08:58 AM 41.6667 -70.3333 330° Northwest 167 192 4,000  Level KA90
Tue 07:09:00 AM 41.4734 -70.2347 330° Northwest  Level FlightAware Approximate
Tue 07:09:31 AM 41.6833 -70.3500 323° Northwest 167 192 4,000  Level KA90
Tue 07:10:00 AM 41.4924 -70.2494 330° Northwest  Level FlightAware Approximate
Tue 07:10:31 AM 41.7333 -70.3833 334° Northwest 167 192 4,000  Level KA90
Tue 07:11:00 AM 41.5114 -70.2641 330° Northwest  Level FlightAware Approximate
Tue 07:11:31 AM 41.7667 -70.4167 323° Northwest 167 192 4,000  Level KA90
Tue 07:12:00 AM 41.5303 -70.2787 330° Northwest  Level FlightAware Approximate
Tue 07:12:36 AM 41.8167 -70.4500 334° Northwest 169 194 4,000  Level KA90
Tue 07:13:00 AM 41.5493 -70.2934 330° Northwest  Level FlightAware Approximate
Tue 07:13:35 AM 41.8500 -70.4833 323° Northwest 168 193 4,000  Level KA90
Tue 07:14:00 AM 41.5683 -70.3081 330° Northwest  Level FlightAware Approximate
Tue 07:14:37 AM 41.9000 -70.5167 334° Northwest 170 196 4,000  Level KA90
Tue 07:15:36 AM 41.9333 -70.5333 340° North 170 196 4,000  Level KA90
Tue 07:16:34 AM 41.9833 -70.5333 360° North 170 196 4,000  Level KA90
Tue 07:17:35 AM 42.0333 -70.5500 346° North 169 194 4,000  Level KA90
Tue 07:18:37 AM 42.0833 -70.5500 360° North 168 193 4,000  Level KA90
Tue 07:19:34 AM 42.1333 -70.5667 346° North 169 194 4,000  Level KA90
Tue 07:20:35 AM 42.1667 -70.5833 340° North 172 198 4,000  Level KA90
Tue 07:21:37 AM 42.2167 -70.5833 360° North 171 197 4,000  Level KA90
Tue 07:22:37 AM 42.2667 -70.6000 346° North 168 193 4,000  Level KA90
Tue 07:23:35 AM 42.3167 -70.6000 360° North 169 194 4,000  Level KA90
Tue 07:24:35 AM 42.3500 -70.6167 340° North 169 194 4,000  Level KA90
Tue 07:25:35 AM 42.4000 -70.6333 346° North 158 182 4,000 -150 Level KA90
Tue 07:26:35 AM 42.4000 -70.7000 270° West 158 182 3,700 -362 Descending KA90
Tue 07:27:31 AM 42.4000 -70.7500 270° West 161 185 3,300 -474 Descending KA90
Tue 07:28:29 AM 42.3833 -70.8167 251° West 166 191 2,800 -700 Descending KA90
Tue 07:29:31 AM 42.3833 -70.8833 270° West 171 197 1,900 -927 Descending KA90
Tue 07:30:32 AM 42.3667 -70.9333 246° West 148 170 900 -823 Descending KA90
Tue 07:31:35 AM 42.3667 -70.9833 270° West 124 143 200 -667 Descending KA90
Tue 07:33:00 AM 42.3500 -71.0000 260° West  Level FlightAware Approximate
Tue 07:40:00 AM 42.3630 -71.0064 260° West  Level Estimated

Login

Don't have an account? Register now (free) for customized features, flight alerts, and more!